sensor_id;sensor_type;location;lat;lon;timestamp;P1;durP1;ratioP1;P2;durP2;ratioP2
51266;SDS011;37338;47.426;19.204;2023-07-24T00:02:12;4.97;;;3.22;;
51266;SDS011;37338;47.426;19.204;2023-07-24T00:04:38;8.93;;;3.53;;
51266;SDS011;37338;47.426;19.204;2023-07-24T00:07:04;3.65;;;2.83;;
51266;SDS011;37338;47.426;19.204;2023-07-24T00:09:29;3.72;;;3.13;;
51266;SDS011;37338;47.426;19.204;2023-07-24T00:11:54;6.57;;;3.38;;
51266;SDS011;37338;47.426;19.204;2023-07-24T00:14:20;4.93;;;3.70;;
51266;SDS011;37338;47.426;19.204;2023-07-24T00:16:45;6.57;;;3.85;;
51266;SDS011;37338;47.426;19.204;2023-07-24T00:19:11;4.05;;;3.25;;
51266;SDS011;37338;47.426;19.204;2023-07-24T00:21:36;4.93;;;3.50;;
51266;SDS011;37338;47.426;19.204;2023-07-24T00:24:01;4.75;;;3.55;;
51266;SDS011;37338;47.426;19.204;2023-07-24T00:26:27;5.35;;;3.67;;
51266;SDS011;37338;47.426;19.204;2023-07-24T00:28:52;5.80;;;4.10;;
51266;SDS011;37338;47.426;19.204;2023-07-24T00:31:18;9.70;;;4.90;;
51266;SDS011;37338;47.426;19.204;2023-07-24T00:33:43;9.50;;;4.45;;
51266;SDS011;37338;47.426;19.204;2023-07-24T00:36:08;8.05;;;3.63;;
51266;SDS011;37338;47.426;19.204;2023-07-24T00:38:34;7.57;;;3.88;;
51266;SDS011;37338;47.426;19.204;2023-07-24T00:40:59;4.82;;;3.95;;
51266;SDS011;37338;47.426;19.204;2023-07-24T00:43:25;6.45;;;3.70;;
51266;SDS011;37338;47.426;19.204;2023-07-24T00:45:50;4.63;;;3.53;;
51266;SDS011;37338;47.426;19.204;2023-07-24T00:48:15;9.95;;;3.42;;
51266;SDS011;37338;47.426;19.204;2023-07-24T00:50:42;5.07;;;3.33;;
51266;SDS011;37338;47.426;19.204;2023-07-24T00:53:08;8.38;;;3.15;;
51266;SDS011;37338;47.426;19.204;2023-07-24T00:55:33;7.70;;;3.20;;
51266;SDS011;37338;47.426;19.204;2023-07-24T00:57:59;9.02;;;3.20;;
51266;SDS011;37338;47.426;19.204;2023-07-24T01:00:25;5.53;;;3.58;;
51266;SDS011;37338;47.426;19.204;2023-07-24T01:02:51;4.80;;;3.30;;
51266;SDS011;37338;47.426;19.204;2023-07-24T01:05:17;3.78;;;3.35;;
51266;SDS011;37338;47.426;19.204;2023-07-24T01:07:42;3.63;;;3.08;;
51266;SDS011;37338;47.426;19.204;2023-07-24T01:10:08;3.80;;;3.13;;
51266;SDS011;37338;47.426;19.204;2023-07-24T01:18:00;3.70;;;3.30;;
51266;SDS011;37338;47.426;19.204;2023-07-24T01:20:27;6.72;;;4.00;;
51266;SDS011;37338;47.426;19.204;2023-07-24T01:22:57;11.05;;;4.55;;
51266;SDS011;37338;47.426;19.204;2023-07-24T01:25:35;9.50;;;5.03;;
51266;SDS011;37338;47.426;19.204;2023-07-24T01:28:01;10.60;;;4.57;;
51266;SDS011;37338;47.426;19.204;2023-07-24T01:30:31;8.10;;;4.25;;
51266;SDS011;37338;47.426;19.204;2023-07-24T01:32:57;12.30;;;4.13;;
51266;SDS011;37338;47.426;19.204;2023-07-24T01:35:22;7.72;;;4.10;;
51266;SDS011;37338;47.426;19.204;2023-07-24T01:37:48;5.28;;;3.15;;
51266;SDS011;37338;47.426;19.204;2023-07-24T01:40:13;5.85;;;3.88;;
51266;SDS011;37338;47.426;19.204;2023-07-24T01:42:40;7.28;;;3.47;;
51266;SDS011;37338;47.426;19.204;2023-07-24T01:45:06;4.50;;;3.42;;
51266;SDS011;37338;47.426;19.204;2023-07-24T01:47:32;4.60;;;3.97;;
51266;SDS011;37338;47.426;19.204;2023-07-24T01:49:57;6.75;;;3.60;;
51266;SDS011;37338;47.426;19.204;2023-07-24T01:52:23;11.93;;;5.10;;
51266;SDS011;37338;47.426;19.204;2023-07-24T01:54:48;12.57;;;5.63;;
51266;SDS011;37338;47.426;19.204;2023-07-24T01:57:14;7.47;;;3.58;;
51266;SDS011;37338;47.426;19.204;2023-07-24T01:59:39;8.68;;;4.65;;
51266;SDS011;37338;47.426;19.204;2023-07-24T02:02:05;7.47;;;4.03;;
51266;SDS011;37338;47.426;19.204;2023-07-24T02:04:30;6.03;;;4.20;;
51266;SDS011;37338;47.426;19.204;2023-07-24T02:06:55;4.97;;;3.70;;
51266;SDS011;37338;47.426;19.204;2023-07-24T02:09:21;6.03;;;4.07;;
51266;SDS011;37338;47.426;19.204;2023-07-24T02:11:46;7.28;;;3.75;;
51266;SDS011;37338;47.426;19.204;2023-07-24T02:14:12;4.95;;;3.28;;
51266;SDS011;37338;47.426;19.204;2023-07-24T02:16:38;6.10;;;3.72;;
51266;SDS011;37338;47.426;19.204;2023-07-24T02:19:04;6.97;;;4.22;;
51266;SDS011;37338;47.426;19.204;2023-07-24T02:21:30;6.63;;;3.70;;
51266;SDS011;37338;47.426;19.204;2023-07-24T02:23:55;8.05;;;4.40;;
51266;SDS011;37338;47.426;19.204;2023-07-24T02:26:20;4.07;;;3.20;;
51266;SDS011;37338;47.426;19.204;2023-07-24T02:28:46;5.05;;;3.28;;
51266;SDS011;37338;47.426;19.204;2023-07-24T02:31:11;5.85;;;3.47;;
51266;SDS011;37338;47.426;19.204;2023-07-24T02:33:36;8.25;;;3.55;;
51266;SDS011;37338;47.426;19.204;2023-07-24T02:36:02;5.65;;;3.67;;
51266;SDS011;37338;47.426;19.204;2023-07-24T02:38:27;4.13;;;3.65;;
51266;SDS011;37338;47.426;19.204;2023-07-24T02:40:53;4.45;;;3.30;;
51266;SDS011;37338;47.426;19.204;2023-07-24T02:43:18;5.80;;;3.50;;
51266;SDS011;37338;47.426;19.204;2023-07-24T02:45:44;5.85;;;3.65;;
51266;SDS011;37338;47.426;19.204;2023-07-24T02:48:09;5.03;;;3.67;;
51266;SDS011;37338;47.426;19.204;2023-07-24T02:50:34;5.05;;;3.78;;
51266;SDS011;37338;47.426;19.204;2023-07-24T02:53:00;4.68;;;3.67;;
51266;SDS011;37338;47.426;19.204;2023-07-24T02:55:25;4.65;;;3.20;;
51266;SDS011;37338;47.426;19.204;2023-07-24T02:57:51;5.35;;;3.75;;
51266;SDS011;37338;47.426;19.204;2023-07-24T03:00:16;5.28;;;4.18;;
51266;SDS011;37338;47.426;19.204;2023-07-24T03:02:42;5.65;;;3.75;;
51266;SDS011;37338;47.426;19.204;2023-07-24T03:05:07;4.47;;;3.55;;
51266;SDS011;37338;47.426;19.204;2023-07-24T03:07:33;6.05;;;4.18;;
51266;SDS011;37338;47.426;19.204;2023-07-24T03:09:58;4.47;;;4.05;;
51266;SDS011;37338;47.426;19.204;2023-07-24T03:12:24;5.75;;;4.03;;
51266;SDS011;37338;47.426;19.204;2023-07-24T03:14:49;5.47;;;3.85;;
51266;SDS011;37338;47.426;19.204;2023-07-24T03:17:15;5.20;;;4.35;;
51266;SDS011;37338;47.426;19.204;2023-07-24T03:19:40;4.07;;;3.67;;
51266;SDS011;37338;47.426;19.204;2023-07-24T03:22:06;5.90;;;4.03;;
51266;SDS011;37338;47.426;19.204;2023-07-24T03:24:32;6.72;;;4.05;;
51266;SDS011;37338;47.426;19.204;2023-07-24T03:26:58;5.78;;;4.40;;
51266;SDS011;37338;47.426;19.204;2023-07-24T03:29:23;15.75;;;4.70;;
51266;SDS011;37338;47.426;19.204;2023-07-24T03:31:48;4.45;;;4.05;;
51266;SDS011;37338;47.426;19.204;2023-07-24T03:34:14;4.88;;;4.07;;
51266;SDS011;37338;47.426;19.204;2023-07-24T03:36:39;4.60;;;4.20;;
51266;SDS011;37338;47.426;19.204;2023-07-24T03:39:07;5.68;;;4.40;;
51266;SDS011;37338;47.426;19.204;2023-07-24T03:41:34;7.10;;;4.65;;
51266;SDS011;37338;47.426;19.204;2023-07-24T03:43:59;5.25;;;4.75;;
51266;SDS011;37338;47.426;19.204;2023-07-24T03:46:24;7.20;;;3.92;;
51266;SDS011;37338;47.426;19.204;2023-07-24T03:48:50;5.72;;;4.93;;
51266;SDS011;37338;47.426;19.204;2023-07-24T03:51:15;8.63;;;5.00;;
51266;SDS011;37338;47.426;19.204;2023-07-24T03:53:41;5.65;;;5.05;;
51266;SDS011;37338;47.426;19.204;2023-07-24T03:56:06;5.85;;;4.90;;
51266;SDS011;37338;47.426;19.204;2023-07-24T03:58:32;8.07;;;6.25;;
51266;SDS011;37338;47.426;19.204;2023-07-24T04:00:57;6.68;;;5.97;;
51266;SDS011;37338;47.426;19.204;2023-07-24T04:03:23;7.43;;;5.90;;
51266;SDS011;37338;47.426;19.204;2023-07-24T04:05:48;9.05;;;5.57;;
51266;SDS011;37338;47.426;19.204;2023-07-24T04:08:13;10.50;;;5.57;;
51266;SDS011;37338;47.426;19.204;2023-07-24T04:10:39;7.80;;;5.75;;
51266;SDS011;37338;47.426;19.204;2023-07-24T04:13:04;9.93;;;7.25;;
51266;SDS011;37338;47.426;19.204;2023-07-24T04:15:30;8.32;;;6.50;;
51266;SDS011;37338;47.426;19.204;2023-07-24T04:17:55;6.97;;;6.18;;
51266;SDS011;37338;47.426;19.204;2023-07-24T04:20:20;11.48;;;7.80;;
51266;SDS011;37338;47.426;19.204;2023-07-24T04:22:46;13.23;;;7.68;;
51266;SDS011;37338;47.426;19.204;2023-07-24T04:25:11;9.55;;;7.45;;
51266;SDS011;37338;47.426;19.204;2023-07-24T04:27:36;12.05;;;8.45;;
51266;SDS011;37338;47.426;19.204;2023-07-24T04:30:02;13.25;;;8.77;;
51266;SDS011;37338;47.426;19.204;2023-07-24T04:32:27;11.63;;;8.52;;
51266;SDS011;37338;47.426;19.204;2023-07-24T04:34:53;11.02;;;7.72;;
51266;SDS011;37338;47.426;19.204;2023-07-24T04:37:18;9.60;;;8.25;;
51266;SDS011;37338;47.426;19.204;2023-07-24T04:39:44;9.25;;;8.00;;
51266;SDS011;37338;47.426;19.204;2023-07-24T04:42:09;11.57;;;7.97;;
51266;SDS011;37338;47.426;19.204;2023-07-24T04:44:34;9.75;;;8.75;;
51266;SDS011;37338;47.426;19.204;2023-07-24T04:47:00;8.75;;;7.90;;
51266;SDS011;37338;47.426;19.204;2023-07-24T04:49:28;10.15;;;8.88;;
51266;SDS011;37338;47.426;19.204;2023-07-24T04:51:54;9.50;;;8.48;;
51266;SDS011;37338;47.426;19.204;2023-07-24T04:54:20;13.30;;;10.18;;
51266;SDS011;37338;47.426;19.204;2023-07-24T04:56:45;9.65;;;8.60;;
51266;SDS011;37338;47.426;19.204;2023-07-24T04:59:10;8.27;;;7.47;;
51266;SDS011;37338;47.426;19.204;2023-07-24T05:01:36;8.77;;;7.90;;
51266;SDS011;37338;47.426;19.204;2023-07-24T05:04:01;8.50;;;7.57;;
51266;SDS011;37338;47.426;19.204;2023-07-24T05:06:27;10.27;;;8.20;;
51266;SDS011;37338;47.426;19.204;2023-07-24T05:08:52;9.30;;;7.28;;
51266;SDS011;37338;47.426;19.204;2023-07-24T05:11:18;9.80;;;7.88;;
51266;SDS011;37338;47.426;19.204;2023-07-24T05:13:43;8.23;;;7.43;;
51266;SDS011;37338;47.426;19.204;2023-07-24T05:16:09;8.27;;;7.57;;
51266;SDS011;37338;47.426;19.204;2023-07-24T05:18:34;8.02;;;7.30;;
51266;SDS011;37338;47.426;19.204;2023-07-24T05:21:00;10.50;;;8.02;;
51266;SDS011;37338;47.426;19.204;2023-07-24T05:23:25;8.52;;;7.72;;
51266;SDS011;37338;47.426;19.204;2023-07-24T05:26:00;8.90;;;8.00;;
51266;SDS011;37338;47.426;19.204;2023-07-24T05:28:30;11.73;;;8.52;;
51266;SDS011;37338;47.426;19.204;2023-07-24T05:31:02;10.45;;;8.13;;
51266;SDS011;37338;47.426;19.204;2023-07-24T05:33:28;9.45;;;7.78;;
51266;SDS011;37338;47.426;19.204;2023-07-24T05:35:58;8.50;;;7.47;;
51266;SDS011;37338;47.426;19.204;2023-07-24T05:40:56;7.90;;;7.03;;
51266;SDS011;37338;47.426;19.204;2023-07-24T05:45:50;8.75;;;6.72;;
51266;SDS011;37338;47.426;19.204;2023-07-24T05:48:16;8.25;;;6.25;;
51266;SDS011;37338;47.426;19.204;2023-07-24T05:50:41;6.35;;;5.32;;
51266;SDS011;37338;47.426;19.204;2023-07-24T05:53:07;6.78;;;5.88;;
51266;SDS011;37338;47.426;19.204;2023-07-24T05:55:32;9.27;;;5.68;;
51266;SDS011;37338;47.426;19.204;2023-07-24T05:57:58;6.63;;;5.93;;
51266;SDS011;37338;47.426;19.204;2023-07-24T06:00:23;9.10;;;6.38;;
51266;SDS011;37338;47.426;19.204;2023-07-24T06:02:48;9.98;;;5.63;;
51266;SDS011;37338;47.426;19.204;2023-07-24T06:05:14;7.03;;;5.90;;
51266;SDS011;37338;47.426;19.204;2023-07-24T06:07:39;5.63;;;5.10;;
51266;SDS011;37338;47.426;19.204;2023-07-24T06:10:05;6.50;;;5.70;;
51266;SDS011;37338;47.426;19.204;2023-07-24T06:12:30;9.55;;;5.75;;
51266;SDS011;37338;47.426;19.204;2023-07-24T06:14:56;6.40;;;5.80;;
51266;SDS011;37338;47.426;19.204;2023-07-24T06:17:21;6.07;;;5.47;;
51266;SDS011;37338;47.426;19.204;2023-07-24T06:19:46;6.70;;;4.93;;
51266;SDS011;37338;47.426;19.204;2023-07-24T06:22:12;6.32;;;5.50;;
51266;SDS011;37338;47.426;19.204;2023-07-24T06:24:37;6.75;;;5.70;;
51266;SDS011;37338;47.426;19.204;2023-07-24T06:27:03;6.82;;;4.82;;
51266;SDS011;37338;47.426;19.204;2023-07-24T06:29:31;5.70;;;4.97;;
51266;SDS011;37338;47.426;19.204;2023-07-24T06:31:56;10.45;;;4.93;;
51266;SDS011;37338;47.426;19.204;2023-07-24T06:34:22;5.57;;;5.10;;
51266;SDS011;37338;47.426;19.204;2023-07-24T06:36:47;16.00;;;5.60;;
51266;SDS011;37338;47.426;19.204;2023-07-24T06:39:13;5.78;;;5.18;;
51266;SDS011;37338;47.426;19.204;2023-07-24T06:41:38;5.75;;;5.18;;
51266;SDS011;37338;47.426;19.204;2023-07-24T06:44:03;6.15;;;5.65;;
51266;SDS011;37338;47.426;19.204;2023-07-24T06:46:29;7.65;;;5.47;;
51266;SDS011;37338;47.426;19.204;2023-07-24T06:48:54;6.95;;;6.22;;
51266;SDS011;37338;47.426;19.204;2023-07-24T06:51:19;6.60;;;5.20;;
51266;SDS011;37338;47.426;19.204;2023-07-24T06:53:45;7.00;;;5.95;;
51266;SDS011;37338;47.426;19.204;2023-07-24T06:56:10;6.43;;;5.82;;
51266;SDS011;37338;47.426;19.204;2023-07-24T06:58:36;6.88;;;5.75;;
51266;SDS011;37338;47.426;19.204;2023-07-24T07:01:05;6.68;;;6.07;;
51266;SDS011;37338;47.426;19.204;2023-07-24T07:03:31;5.97;;;5.03;;
51266;SDS011;37338;47.426;19.204;2023-07-24T07:05:59;10.38;;;5.65;;
51266;SDS011;37338;47.426;19.204;2023-07-24T07:08:25;6.55;;;5.70;;
51266;SDS011;37338;47.426;19.204;2023-07-24T07:11:00;6.00;;;5.45;;
51266;SDS011;37338;47.426;19.204;2023-07-24T07:13:25;6.68;;;5.88;;
51266;SDS011;37338;47.426;19.204;2023-07-24T07:15:51;9.60;;;6.10;;
51266;SDS011;37338;47.426;19.204;2023-07-24T07:18:17;5.93;;;5.35;;
51266;SDS011;37338;47.426;19.204;2023-07-24T07:20:46;7.55;;;5.97;;
51266;SDS011;37338;47.426;19.204;2023-07-24T07:23:12;7.57;;;6.18;;
51266;SDS011;37338;47.426;19.204;2023-07-24T07:25:37;9.13;;;6.13;;
51266;SDS011;37338;47.426;19.204;2023-07-24T07:28:02;13.65;;;6.53;;
51266;SDS011;37338;47.426;19.204;2023-07-24T07:30:28;11.73;;;6.10;;
51266;SDS011;37338;47.426;19.204;2023-07-24T07:32:53;9.45;;;6.47;;
51266;SDS011;37338;47.426;19.204;2023-07-24T07:35:19;8.88;;;5.75;;
51266;SDS011;37338;47.426;19.204;2023-07-24T07:37:44;7.68;;;6.15;;
51266;SDS011;37338;47.426;19.204;2023-07-24T07:40:09;7.20;;;6.07;;
51266;SDS011;37338;47.426;19.204;2023-07-24T07:42:35;9.27;;;6.10;;
51266;SDS011;37338;47.426;19.204;2023-07-24T07:45:00;9.00;;;6.68;;
51266;SDS011;37338;47.426;19.204;2023-07-24T07:47:26;11.00;;;6.60;;
51266;SDS011;37338;47.426;19.204;2023-07-24T07:49:51;9.02;;;6.63;;
51266;SDS011;37338;47.426;19.204;2023-07-24T07:52:17;9.05;;;7.13;;
51266;SDS011;37338;47.426;19.204;2023-07-24T07:54:45;11.13;;;7.18;;
51266;SDS011;37338;47.426;19.204;2023-07-24T07:57:12;12.80;;;7.53;;
51266;SDS011;37338;47.426;19.204;2023-07-24T07:59:37;7.95;;;7.15;;
51266;SDS011;37338;47.426;19.204;2023-07-24T08:02:02;11.90;;;8.27;;
51266;SDS011;37338;47.426;19.204;2023-07-24T08:04:28;7.90;;;6.93;;
51266;SDS011;37338;47.426;19.204;2023-07-24T08:06:53;7.57;;;6.72;;
51266;SDS011;37338;47.426;19.204;2023-07-24T08:09:19;8.93;;;7.03;;
51266;SDS011;37338;47.426;19.204;2023-07-24T08:11:46;8.55;;;6.80;;
51266;SDS011;37338;47.426;19.204;2023-07-24T08:14:12;10.93;;;6.88;;
51266;SDS011;37338;47.426;19.204;2023-07-24T08:16:37;9.80;;;6.43;;
51266;SDS011;37338;47.426;19.204;2023-07-24T08:19:03;15.35;;;6.65;;
51266;SDS011;37338;47.426;19.204;2023-07-24T08:21:28;12.52;;;6.30;;
51266;SDS011;37338;47.426;19.204;2023-07-24T08:23:53;9.48;;;7.13;;
51266;SDS011;37338;47.426;19.204;2023-07-24T08:26:19;12.60;;;6.82;;
51266;SDS011;37338;47.426;19.204;2023-07-24T08:28:44;9.82;;;7.20;;
51266;SDS011;37338;47.426;19.204;2023-07-24T08:31:10;12.60;;;7.25;;
51266;SDS011;37338;47.426;19.204;2023-07-24T08:33:36;7.95;;;6.20;;
51266;SDS011;37338;47.426;19.204;2023-07-24T08:36:02;7.45;;;6.38;;
51266;SDS011;37338;47.426;19.204;2023-07-24T08:38:31;10.48;;;6.75;;
51266;SDS011;37338;47.426;19.204;2023-07-24T08:41:12;10.63;;;6.43;;
51266;SDS011;37338;47.426;19.204;2023-07-24T08:43:40;11.50;;;7.30;;
51266;SDS011;37338;47.426;19.204;2023-07-24T08:46:07;8.30;;;7.40;;
51266;SDS011;37338;47.426;19.204;2023-07-24T08:48:34;11.18;;;7.55;;
51266;SDS011;37338;47.426;19.204;2023-07-24T08:51:04;8.07;;;7.25;;
51266;SDS011;37338;47.426;19.204;2023-07-24T08:53:32;8.88;;;6.45;;
51266;SDS011;37338;47.426;19.204;2023-07-24T08:55:58;12.70;;;7.45;;
51266;SDS011;37338;47.426;19.204;2023-07-24T08:58:24;12.88;;;7.30;;
51266;SDS011;37338;47.426;19.204;2023-07-24T09:00:50;11.18;;;7.15;;
51266;SDS011;37338;47.426;19.204;2023-07-24T09:03:16;11.60;;;7.00;;
51266;SDS011;37338;47.426;19.204;2023-07-24T09:05:43;8.68;;;7.07;;
51266;SDS011;37338;47.426;19.204;2023-07-24T09:08:09;13.05;;;7.25;;
51266;SDS011;37338;47.426;19.204;2023-07-24T09:10:34;12.45;;;6.78;;
51266;SDS011;37338;47.426;19.204;2023-07-24T09:13:00;10.13;;;6.90;;
51266;SDS011;37338;47.426;19.204;2023-07-24T09:15:28;12.63;;;7.00;;
51266;SDS011;37338;47.426;19.204;2023-07-24T09:17:54;10.43;;;6.82;;
51266;SDS011;37338;47.426;19.204;2023-07-24T09:20:19;10.70;;;6.60;;
51266;SDS011;37338;47.426;19.204;2023-07-24T09:22:51;9.88;;;7.68;;
51266;SDS011;37338;47.426;19.204;2023-07-24T09:25:17;12.45;;;7.93;;
51266;SDS011;37338;47.426;19.204;2023-07-24T09:27:43;9.95;;;7.05;;
51266;SDS011;37338;47.426;19.204;2023-07-24T09:30:15;11.80;;;8.02;;
51266;SDS011;37338;47.426;19.204;2023-07-24T09:32:42;15.70;;;6.88;;
51266;SDS011;37338;47.426;19.204;2023-07-24T09:35:17;9.43;;;7.22;;
51266;SDS011;37338;47.426;19.204;2023-07-24T09:37:45;10.82;;;6.97;;
51266;SDS011;37338;47.426;19.204;2023-07-24T09:40:12;8.77;;;7.50;;
51266;SDS011;37338;47.426;19.204;2023-07-24T09:42:39;14.82;;;8.05;;
51266;SDS011;37338;47.426;19.204;2023-07-24T09:45:05;12.10;;;8.15;;
51266;SDS011;37338;47.426;19.204;2023-07-24T09:47:33;13.57;;;7.45;;
51266;SDS011;37338;47.426;19.204;2023-07-24T09:49:59;10.68;;;7.68;;
51266;SDS011;37338;47.426;19.204;2023-07-24T09:52:29;12.63;;;8.23;;
51266;SDS011;37338;47.426;19.204;2023-07-24T09:55:04;8.90;;;7.57;;
51266;SDS011;37338;47.426;19.204;2023-07-24T09:57:54;10.23;;;7.95;;
51266;SDS011;37338;47.426;19.204;2023-07-24T10:00:20;9.15;;;7.45;;
51266;SDS011;37338;47.426;19.204;2023-07-24T10:02:46;12.13;;;7.80;;
51266;SDS011;37338;47.426;19.204;2023-07-24T10:05:11;14.27;;;8.32;;
51266;SDS011;37338;47.426;19.204;2023-07-24T10:07:37;12.50;;;7.78;;
51266;SDS011;37338;47.426;19.204;2023-07-24T10:10:02;11.52;;;8.55;;
51266;SDS011;37338;47.426;19.204;2023-07-24T10:12:28;12.20;;;7.88;;
51266;SDS011;37338;47.426;19.204;2023-07-24T10:14:55;10.90;;;8.27;;
51266;SDS011;37338;47.426;19.204;2023-07-24T10:17:40;13.73;;;8.88;;
51266;SDS011;37338;47.426;19.204;2023-07-24T10:20:08;13.75;;;9.48;;
51266;SDS011;37338;47.426;19.204;2023-07-24T10:22:36;15.70;;;9.98;;
51266;SDS011;37338;47.426;19.204;2023-07-24T10:25:03;11.40;;;8.85;;
51266;SDS011;37338;47.426;19.204;2023-07-24T10:27:29;12.82;;;9.25;;
51266;SDS011;37338;47.426;19.204;2023-07-24T10:30:01;12.70;;;8.70;;
51266;SDS011;37338;47.426;19.204;2023-07-24T10:32:30;12.07;;;8.52;;
51266;SDS011;37338;47.426;19.204;2023-07-24T10:34:58;11.75;;;8.73;;
51266;SDS011;37338;47.426;19.204;2023-07-24T10:37:35;12.75;;;9.40;;
51266;SDS011;37338;47.426;19.204;2023-07-24T10:40:02;15.23;;;8.48;;
51266;SDS011;37338;47.426;19.204;2023-07-24T10:42:29;12.77;;;9.68;;
51266;SDS011;37338;47.426;19.204;2023-07-24T10:45:08;17.15;;;10.30;;
51266;SDS011;37338;47.426;19.204;2023-07-24T10:47:34;13.15;;;8.98;;
51266;SDS011;37338;47.426;19.204;2023-07-24T10:49:59;14.45;;;9.95;;
51266;SDS011;37338;47.426;19.204;2023-07-24T10:52:31;10.40;;;8.20;;
51266;SDS011;37338;47.426;19.204;2023-07-24T10:55:02;17.65;;;9.57;;
51266;SDS011;37338;47.426;19.204;2023-07-24T10:57:28;16.20;;;9.20;;
51266;SDS011;37338;47.426;19.204;2023-07-24T10:59:54;12.23;;;8.75;;
51266;SDS011;37338;47.426;19.204;2023-07-24T11:02:19;15.25;;;10.40;;
51266;SDS011;37338;47.426;19.204;2023-07-24T11:04:45;14.63;;;8.68;;
51266;SDS011;37338;47.426;19.204;2023-07-24T11:07:11;11.05;;;8.13;;
51266;SDS011;37338;47.426;19.204;2023-07-24T11:09:37;12.43;;;7.60;;
51266;SDS011;37338;47.426;19.204;2023-07-24T11:12:14;14.18;;;7.47;;
51266;SDS011;37338;47.426;19.204;2023-07-24T11:14:49;18.00;;;8.27;;
51266;SDS011;37338;47.426;19.204;2023-07-24T11:17:16;13.43;;;8.40;;
51266;SDS011;37338;47.426;19.204;2023-07-24T11:19:41;10.52;;;7.97;;
51266;SDS011;37338;47.426;19.204;2023-07-24T11:22:07;11.75;;;8.07;;
51266;SDS011;37338;47.426;19.204;2023-07-24T11:24:32;12.05;;;7.82;;
51266;SDS011;37338;47.426;19.204;2023-07-24T11:26:57;12.82;;;7.60;;
51266;SDS011;37338;47.426;19.204;2023-07-24T11:29:23;16.08;;;7.38;;
51266;SDS011;37338;47.426;19.204;2023-07-24T11:31:55;11.18;;;8.65;;
51266;SDS011;37338;47.426;19.204;2023-07-24T11:34:21;12.68;;;7.97;;
51266;SDS011;37338;47.426;19.204;2023-07-24T11:36:47;12.63;;;8.30;;
51266;SDS011;37338;47.426;19.204;2023-07-24T11:39:13;11.68;;;7.65;;
51266;SDS011;37338;47.426;19.204;2023-07-24T11:41:39;9.10;;;7.68;;
51266;SDS011;37338;47.426;19.204;2023-07-24T11:44:04;16.33;;;7.55;;
51266;SDS011;37338;47.426;19.204;2023-07-24T11:46:30;9.77;;;7.43;;
51266;SDS011;37338;47.426;19.204;2023-07-24T11:48:56;11.55;;;7.68;;
51266;SDS011;37338;47.426;19.204;2023-07-24T11:51:22;13.27;;;8.82;;
51266;SDS011;37338;47.426;19.204;2023-07-24T11:53:49;8.95;;;6.70;;
51266;SDS011;37338;47.426;19.204;2023-07-24T11:56:16;11.85;;;7.90;;
51266;SDS011;37338;47.426;19.204;2023-07-24T11:58:42;9.88;;;6.88;;
51266;SDS011;37338;47.426;19.204;2023-07-24T12:01:09;11.43;;;7.95;;
51266;SDS011;37338;47.426;19.204;2023-07-24T12:03:37;8.57;;;7.03;;
51266;SDS011;37338;47.426;19.204;2023-07-24T12:06:02;12.90;;;6.55;;
51266;SDS011;37338;47.426;19.204;2023-07-24T12:08:30;11.18;;;7.25;;
51266;SDS011;37338;47.426;19.204;2023-07-24T12:10:57;10.80;;;6.85;;
51266;SDS011;37338;47.426;19.204;2023-07-24T12:13:22;9.38;;;6.95;;
51266;SDS011;37338;47.426;19.204;2023-07-24T12:15:48;9.73;;;7.20;;
51266;SDS011;37338;47.426;19.204;2023-07-24T12:18:14;11.07;;;6.93;;
51266;SDS011;37338;47.426;19.204;2023-07-24T12:20:39;14.20;;;7.05;;
51266;SDS011;37338;47.426;19.204;2023-07-24T12:23:05;13.88;;;7.32;;
51266;SDS011;37338;47.426;19.204;2023-07-24T12:25:30;13.20;;;7.07;;
51266;SDS011;37338;47.426;19.204;2023-07-24T12:27:56;10.82;;;7.35;;
51266;SDS011;37338;47.426;19.204;2023-07-24T12:30:21;11.57;;;7.00;;
51266;SDS011;37338;47.426;19.204;2023-07-24T12:32:46;12.30;;;6.68;;
51266;SDS011;37338;47.426;19.204;2023-07-24T12:35:12;10.30;;;6.55;;
51266;SDS011;37338;47.426;19.204;2023-07-24T12:37:37;11.45;;;7.28;;
51266;SDS011;37338;47.426;19.204;2023-07-24T12:40:04;13.93;;;6.85;;
51266;SDS011;37338;47.426;19.204;2023-07-24T12:42:30;11.65;;;6.35;;
51266;SDS011;37338;47.426;19.204;2023-07-24T12:44:56;14.88;;;6.82;;
51266;SDS011;37338;47.426;19.204;2023-07-24T12:47:22;9.38;;;6.47;;
51266;SDS011;37338;47.426;19.204;2023-07-24T12:49:48;12.13;;;6.72;;
51266;SDS011;37338;47.426;19.204;2023-07-24T12:52:14;10.68;;;6.60;;
51266;SDS011;37338;47.426;19.204;2023-07-24T12:54:39;12.27;;;6.55;;
51266;SDS011;37338;47.426;19.204;2023-07-24T12:57:04;9.35;;;6.38;;
51266;SDS011;37338;47.426;19.204;2023-07-24T12:59:30;10.18;;;7.40;;
51266;SDS011;37338;47.426;19.204;2023-07-24T13:01:55;16.27;;;7.10;;
51266;SDS011;37338;47.426;19.204;2023-07-24T13:04:22;13.18;;;6.72;;
51266;SDS011;37338;47.426;19.204;2023-07-24T13:06:47;12.35;;;6.50;;
51266;SDS011;37338;47.426;19.204;2023-07-24T13:09:13;19.13;;;6.78;;
51266;SDS011;37338;47.426;19.204;2023-07-24T13:11:38;13.70;;;6.32;;
51266;SDS011;37338;47.426;19.204;2023-07-24T13:14:04;11.13;;;5.75;;
51266;SDS011;37338;47.426;19.204;2023-07-24T13:16:29;11.07;;;6.45;;
51266;SDS011;37338;47.426;19.204;2023-07-24T13:18:54;10.10;;;7.07;;
51266;SDS011;37338;47.426;19.204;2023-07-24T13:21:20;9.77;;;6.22;;
51266;SDS011;37338;47.426;19.204;2023-07-24T13:23:45;14.65;;;6.22;;
51266;SDS011;37338;47.426;19.204;2023-07-24T13:26:11;7.97;;;6.10;;
51266;SDS011;37338;47.426;19.204;2023-07-24T13:28:37;13.88;;;7.57;;
51266;SDS011;37338;47.426;19.204;2023-07-24T13:31:19;13.90;;;6.85;;
51266;SDS011;37338;47.426;19.204;2023-07-24T13:33:45;11.80;;;6.95;;
51266;SDS011;37338;47.426;19.204;2023-07-24T13:36:10;12.07;;;7.35;;
51266;SDS011;37338;47.426;19.204;2023-07-24T13:38:36;10.95;;;7.20;;
51266;SDS011;37338;47.426;19.204;2023-07-24T13:41:02;15.70;;;7.35;;
51266;SDS011;37338;47.426;19.204;2023-07-24T13:43:28;11.15;;;7.70;;
51266;SDS011;37338;47.426;19.204;2023-07-24T13:45:54;19.25;;;7.20;;
51266;SDS011;37338;47.426;19.204;2023-07-24T13:48:20;10.07;;;7.03;;
51266;SDS011;37338;47.426;19.204;2023-07-24T13:50:45;13.40;;;8.30;;
51266;SDS011;37338;47.426;19.204;2023-07-24T13:53:10;13.60;;;8.50;;
51266;SDS011;37338;47.426;19.204;2023-07-24T13:55:37;17.05;;;8.07;;
51266;SDS011;37338;47.426;19.204;2023-07-24T13:58:02;15.80;;;9.38;;
51266;SDS011;37338;47.426;19.204;2023-07-24T14:00:27;13.02;;;9.40;;
51266;SDS011;37338;47.426;19.204;2023-07-24T14:02:53;18.52;;;10.80;;
51266;SDS011;37338;47.426;19.204;2023-07-24T14:05:18;15.75;;;10.38;;
51266;SDS011;37338;47.426;19.204;2023-07-24T14:07:44;16.63;;;10.48;;
51266;SDS011;37338;47.426;19.204;2023-07-24T14:10:09;16.63;;;10.07;;
51266;SDS011;37338;47.426;19.204;2023-07-24T14:12:35;13.68;;;10.02;;
51266;SDS011;37338;47.426;19.204;2023-07-24T14:15:00;15.15;;;9.90;;
51266;SDS011;37338;47.426;19.204;2023-07-24T14:17:26;20.40;;;9.98;;
51266;SDS011;37338;47.426;19.204;2023-07-24T14:19:52;14.80;;;9.85;;
51266;SDS011;37338;47.426;19.204;2023-07-24T14:22:17;19.90;;;9.38;;
51266;SDS011;37338;47.426;19.204;2023-07-24T14:24:42;14.00;;;9.40;;
51266;SDS011;37338;47.426;19.204;2023-07-24T14:27:08;19.77;;;10.20;;
51266;SDS011;37338;47.426;19.204;2023-07-24T14:29:33;17.00;;;10.18;;
51266;SDS011;37338;47.426;19.204;2023-07-24T14:31:59;16.20;;;9.35;;
51266;SDS011;37338;47.426;19.204;2023-07-24T14:34:24;15.48;;;11.43;;